Time;durP1;ratioP1;P1;durP2;ratioP2;P2;SDS_P1;SDS_P2;PMS_P1;PMS_P2;Temp;Humidity;BMP_temperature;BMP_pressure;BME280_temperature;BME280_humidity;BME280_pressure;Samples;Min_cycle;Max_cycle;Signal;HPM_P1;HPM_P2
2022/10/01 00:03:09;;;;;;;;;;;;;;;7.51;92.24;98875.78;8266722;28;20300;-77
2022/10/01 00:07:13;;;;;;;;;;;;;;;7.60;92.07;98880.09;8257126;28;20400;-78
2022/10/01 00:11:20;;;;;;;;;;;;;;;7.64;91.49;98874.91;8262326;28;20269;-77
2022/10/01 00:15:21;;;;;;;;;;;;;;;7.67;91.70;98876.63;8272105;28;19976;-76
2022/10/01 00:19:23;;;;;;;;;;;;;;;7.74;91.59;98870.59;8274245;28;19925;-78
2022/10/01 00:23:24;;;;;;;;;;;;;;;7.77;91.70;98863.69;8292628;28;19925;-78
2022/10/01 00:27:26;;;;;;;;;;;;;;;7.85;91.12;98866.25;8272743;28;20409;-78
2022/10/01 00:31:28;;;;;;;;;;;;;;;7.88;91.37;98856.75;8295810;28;19925;-75
2022/10/01 00:35:30;;;;;;;;;;;;;;;7.94;91.25;98850.75;8241985;28;19973;-76
2022/10/01 00:39:31;;;;;;;;;;;;;;;7.99;90.69;98835.22;8219299;28;19934;-76
2022/10/01 00:43:34;;;;;;;;;;;;;;;8.01;90.63;98846.41;8232107;28;20746;-75
2022/10/01 00:47:40;;;;;;;;;;;;;;;8.04;90.43;98831.75;8240362;28;19930;-78
2022/10/01 00:51:44;;;;;;;;;;;;;;;8.09;89.87;98829.16;8242245;28;19929;-78
2022/10/01 00:55:50;;;;;;;;;;;;;;;8.12;90.29;98832.59;8240315;28;20416;-78
2022/10/01 00:59:54;;;;;;;;;;;;;;;8.18;90.22;98829.09;8248197;28;19930;-78
2022/10/01 01:03:56;;;;;;;;;;;;;;;8.23;89.39;98816.16;8243025;28;20500;-78
2022/10/01 01:08:01;;;;;;;;;;;;;;;8.26;89.27;98809.25;8240262;28;20082;-78
2022/10/01 01:12:23;;;;;;;;;;;;;;;8.32;88.91;98808.38;8244918;28;19983;-76
2022/10/01 01:16:32;;;;;;;;;;;;;;;8.35;89.13;98798.91;8223432;28;19969;-78
2022/10/01 01:21:14;;;;;;;;;;;;;;;8.39;89.09;98795.41;8232306;28;19933;-78
2022/10/01 01:25:17;;;;;;;;;;;;;;;8.44;88.20;98795.41;8255700;28;19932;-78
2022/10/01 01:29:22;;;;;;;;;;;;;;;8.48;88.84;98785.03;8241926;28;20717;-76
2022/10/01 01:33:33;;;;;;;;;;;;;;;8.53;88.32;98782.41;8239076;28;19926;-78
2022/10/01 01:37:37;;;;;;;;;;;;;;;8.57;88.60;98776.34;8260741;28;19925;-77
2022/10/01 01:41:48;;;;;;;;;;;;;;;8.65;87.25;98761.63;8256163;28;19947;-78
2022/10/01 01:45:53;;;;;;;;;;;;;;;8.74;86.77;98758.97;8279501;28;19925;-78
2022/10/01 01:49:57;;;;;;;;;;;;;;;8.79;86.80;98757.19;8271568;28;20150;-78
2022/10/01 01:53:59;;;;;;;;;;;;;;;8.84;86.60;98744.25;8284009;28;19925;-77
2022/10/01 01:58:01;;;;;;;;;;;;;;;8.93;85.94;98745.88;8285958;28;19925;-78
2022/10/01 02:02:05;;;;;;;;;;;;;;;9.02;85.45;98751.84;8297780;28;19925;-78
2022/10/01 02:06:30;;;;;;;;;;;;;;;9.12;85.09;98744.00;8269333;28;20020;-77
2022/10/01 02:10:35;;;;;;;;;;;;;;;9.24;84.47;98741.28;8276632;28;19925;-78
2022/10/01 02:14:49;;;;;;;;;;;;;;;9.34;84.24;98759.34;8305333;28;20318;-77
2022/10/01 02:19:08;;;;;;;;;;;;;;;9.46;82.78;98763.53;8301781;28;20342;-78
2022/10/01 02:23:12;;;;;;;;;;;;;;;9.59;82.28;98749.56;8288603;28;19924;-78
2022/10/01 02:27:19;;;;;;;;;;;;;;;9.63;81.82;98750.41;8283260;28;19956;-76
2022/10/01 02:31:21;;;;;;;;;;;;;;;9.67;82.19;98744.28;8284075;28;19925;-78
2022/10/01 02:35:23;;;;;;;;;;;;;;;9.68;82.12;98748.59;8303003;28;19952;-78
2022/10/01 02:39:26;;;;;;;;;;;;;;;9.67;82.92;98747.75;8280908;28;20345;-76
2022/10/01 02:43:31;;;;;;;;;;;;;;;9.67;82.58;98737.38;8300674;28;20350;-78
2022/10/01 02:47:39;;;;;;;;;;;;;;;9.67;83.38;98737.38;8284875;28;19921;-78
2022/10/01 02:52:04;;;;;;;;;;;;;;;9.65;83.79;98730.50;8300545;28;19925;-75
2022/10/01 02:56:05;;;;;;;;;;;;;;;9.62;85.53;98726.22;8259781;28;20273;-77
2022/10/01 03:00:14;;;;;;;;;;;;;;;9.60;86.31;98730.56;8280720;28;19929;-77
2022/10/01 03:04:18;;;;;;;;;;;;;;;9.57;86.91;98727.16;8265538;28;19928;-76
2022/10/01 03:08:19;;;;;;;;;;;;;;;9.55;87.19;98715.94;8276835;28;20612;-76
2022/10/01 03:12:22;;;;;;;;;;;;;;;9.53;88.05;98704.72;8269624;28;20703;-76
2022/10/01 03:16:30;;;;;;;;;;;;;;;9.49;88.92;98700.44;8291191;28;19929;-75
2022/10/01 03:20:31;;;;;;;;;;;;;;;9.48;89.29;98702.16;8292433;28;19924;-76
2022/10/01 03:24:33;;;;;;;;;;;;;;;9.50;89.90;98692.66;8289710;28;19926;-76
2022/10/01 03:28:34;;;;;;;;;;;;;;;9.53;89.78;98689.19;8290189;28;19926;-74
2022/10/01 03:32:36;;;;;;;;;;;;;;;9.54;89.30;98680.53;8293557;28;20325;-76
2022/10/01 03:36:37;;;;;;;;;;;;;;;9.54;90.13;98681.38;8273060;28;20565;-74
2022/10/01 03:40:38;;;;;;;;;;;;;;;9.53;90.69;98671.03;8287904;28;19980;-77
2022/10/01 03:44:39;;;;;;;;;;;;;;;9.51;91.04;98660.66;8290229;28;20433;-76
2022/10/01 03:48:48;;;;;;;;;;;;;;;9.50;90.90;98648.59;8259555;28;19987;-76
2022/10/01 03:52:50;;;;;;;;;;;;;;;9.47;91.73;98645.19;8289832;28;20026;-75
2022/10/01 03:56:51;;;;;;;;;;;;;;;9.48;91.80;98647.75;8275075;28;19926;-77
2022/10/01 04:00:56;;;;;;;;;;;;;;;9.50;92.08;98629.59;8288011;28;20411;-76
2022/10/01 04:04:58;;;;;;;;;;;;;;;9.50;92.85;98621.81;8272846;28;20417;-75
2022/10/01 04:08:59;;;;;;;;;;;;;;;9.54;93.04;98628.72;8289174;28;19929;-75
2022/10/01 04:13:01;;;;;;;;;;;;;;;9.54;92.80;98626.13;8290090;28;19926;-75
2022/10/01 04:17:02;;;;;;;;;;;;;;;9.54;93.43;98632.16;8285198;28;19991;-75
2022/10/01 04:21:04;;;;;;;;;;;;;;;9.56;93.34;98624.34;8275250;28;20306;-75
2022/10/01 04:25:06;;;;;;;;;;;;;;;9.56;93.58;98614.00;8272325;28;19991;-76
2022/10/01 04:29:07;;;;;;;;;;;;;;;9.54;94.03;98602.78;8268940;28;20003;-75
2022/10/01 04:33:15;;;;;;;;;;;;;;;9.56;93.83;98594.13;8267970;28;20262;-76
2022/10/01 04:37:23;;;;;;;;;;;;;;;9.55;94.03;98589.81;8276625;28;20321;-77
2022/10/01 04:41:25;;;;;;;;;;;;;;;9.56;93.79;98588.06;8287251;28;19928;-76
2022/10/01 04:45:26;;;;;;;;;;;;;;;9.53;94.18;98598.50;8270642;28;19929;-75
2022/10/01 04:49:28;;;;;;;;;;;;;;;9.53;94.93;98608.84;8285315;28;19925;-75
2022/10/01 04:53:29;;;;;;;;;;;;;;;9.52;94.79;98602.81;8288926;28;20003;-75
2022/10/01 04:57:30;;;;;;;;;;;;;;;9.55;95.18;98583.78;8265453;28;20007;-75
2022/10/01 05:01:39;;;;;;;;;;;;;;;9.58;95.51;98588.91;8270623;28;20450;-77
2022/10/01 05:05:40;;;;;;;;;;;;;;;9.56;95.33;98568.19;8290456;28;19936;-75
2022/10/01 05:09:42;;;;;;;;;;;;;;;9.56;95.56;98565.59;8292378;28;19940;-75
2022/10/01 05:13:50;;;;;;;;;;;;;;;9.56;95.58;98562.16;8269114;28;19925;-75
2022/10/01 05:17:58;;;;;;;;;;;;;;;9.55;95.99;98569.06;8281082;28;19925;-74
2022/10/01 05:21:59;;;;;;;;;;;;;;;9.58;96.35;98576.81;8282734;28;19925;-75
2022/10/01 05:26:04;;;;;;;;;;;;;;;9.60;96.14;98569.88;8283057;28;19975;-75
2022/10/01 05:30:17;;;;;;;;;;;;;;;9.60;96.54;98582.81;8282831;28;19929;-76
2022/10/01 05:34:18;;;;;;;;;;;;;;;9.56;97.47;98590.66;8260388;28;20320;-75
2022/10/01 05:38:20;;;;;;;;;;;;;;;9.59;97.87;98585.44;8279472;28;20410;-76
2022/10/01 05:42:21;;;;;;;;;;;;;;;9.61;97.55;98578.50;8261099;28;19925;-78
2022/10/01 05:46:23;;;;;;;;;;;;;;;9.62;97.65;98575.88;8265485;28;19933;-75
2022/10/01 05:50:25;;;;;;;;;;;;;;;9.65;97.93;98569.78;8263602;28;20317;-76
2022/10/01 05:54:28;;;;;;;;;;;;;;;9.64;98.84;98579.31;8281854;28;19935;-76
2022/10/01 05:58:29;;;;;;;;;;;;;;;9.66;98.72;98567.16;8251180;28;19925;-75
2022/10/01 06:02:31;;;;;;;;;;;;;;;9.69;98.48;98571.44;8262932;28;20755;-75
2022/10/01 06:06:32;;;;;;;;;;;;;;;9.71;98.84;98566.28;8280231;28;19925;-76
2022/10/01 06:10:35;;;;;;;;;;;;;;;9.73;98.24;98572.28;8282611;28;19979;-75
2022/10/01 06:14:43;;;;;;;;;;;;;;;9.73;98.95;98591.28;8281203;28;19936;-76
2022/10/01 06:18:45;;;;;;;;;;;;;;;9.75;99.27;98592.13;8263025;28;19929;-77
2022/10/01 06:22:54;;;;;;;;;;;;;;;9.75;98.98;98586.09;8268126;28;19929;-76
2022/10/01 06:27:02;;;;;;;;;;;;;;;9.76;99.17;98591.25;8265939;28;19925;-75
2022/10/01 06:31:10;;;;;;;;;;;;;;;9.75;99.16;98606.81;8283541;28;19983;-75
2022/10/01 06:35:11;;;;;;;;;;;;;;;9.76;99.42;98599.03;8263086;28;19925;-75
2022/10/01 06:39:13;;;;;;;;;;;;;;;9.77;99.75;98594.69;8269623;28;19925;-75
2022/10/01 06:43:14;;;;;;;;;;;;;;;9.79;99.30;98605.91;8287357;28;19929;-76
2022/10/01 06:47:16;;;;;;;;;;;;;;;9.82;99.52;98605.84;8287908;28;19925;-74
2022/10/01 06:52:47;;;;;;;;;;;;;;;9.87;99.57;98596.25;8270559;28;19929;-75
2022/10/01 06:55:39;;;;;;;;;;;;;;;9.89;99.61;98600.56;8266767;28;19933;-75
2022/10/01 06:59:40;;;;;;;;;;;;;;;9.90;99.78;98607.47;8269115;28;19929;-75
2022/10/01 07:03:42;;;;;;;;;;;;;;;9.91;100.00;98616.97;8282298;28;19947;-74
2022/10/01 07:07:43;;;;;;;;;;;;;;;9.95;100.00;98612.59;8253001;28;20345;-74
2022/10/01 07:11:45;;;;;;;;;;;;;;;10.00;99.89;98614.22;8286669;28;19925;-74
2022/10/01 07:15:46;;;;;;;;;;;;;;;10.05;99.82;98618.47;8286968;28;19936;-74
2022/10/01 07:19:48;;;;;;;;;;;;;;;10.06;100.00;98621.06;8266819;28;20008;-74
2022/10/01 07:23:49;;;;;;;;;;;;;;;10.09;100.00;98628.81;8287202;28;19925;-75
2022/10/01 07:27:57;;;;;;;;;;;;;;;10.11;99.85;98627.03;8273690;28;19925;-74
2022/10/01 07:31:59;;;;;;;;;;;;;;;10.12;99.81;98617.53;8276717;28;19933;-74
2022/10/01 07:36:02;;;;;;;;;;;;;;;10.17;99.71;98613.13;8286615;28;19925;-75
2022/10/01 07:40:04;;;;;;;;;;;;;;;10.16;99.85;98586.31;8289484;28;19964;-75
2022/10/01 07:44:10;;;;;;;;;;;;;;;10.20;99.78;98575.00;8271003;28;19939;-75
2022/10/01 07:48:18;;;;;;;;;;;;;;;10.23;99.74;98571.53;8285795;28;19930;-75
2022/10/01 07:52:20;;;;;;;;;;;;;;;10.23;100.00;98574.13;8269830;28;19933;-74
2022/10/01 07:56:21;;;;;;;;;;;;;;;10.23;100.00;98577.59;8274538;28;19929;-74
2022/10/01 08:00:23;;;;;;;;;;;;;;;10.25;100.00;98577.59;8291405;28;19983;-74
2022/10/01 08:08:45;;;;;;;;;;;;;;;10.36;100.00;98596.41;8288787;28;20518;-76
2022/10/01 08:12:46;;;;;;;;;;;;;;;10.39;100.00;98587.72;8267769;28;19967;-76
2022/10/01 08:16:48;;;;;;;;;;;;;;;10.42;100.00;98595.47;8269696;28;19987;-75
2022/10/01 08:20:57;;;;;;;;;;;;;;;10.44;100.00;98612.72;8291132;28;19968;-75
2022/10/01 08:24:59;;;;;;;;;;;;;;;10.47;100.00;98611.81;8250433;28;19926;-76
2022/10/01 08:29:00;;;;;;;;;;;;;;;10.52;100.00;98613.44;8268631;28;20293;-76
2022/10/01 08:33:02;;;;;;;;;;;;;;;10.56;100.00;98619.44;8286457;28;19925;-77
2022/10/01 08:37:04;;;;;;;;;;;;;;;10.57;100.00;98628.94;8271102;28;19928;-77
2022/10/01 08:41:22;;;;;;;;;;;;;;;10.58;100.00;98623.72;8285114;28;19925;-77
2022/10/01 08:45:44;;;;;;;;;;;;;;;10.58;100.00;98633.25;8284530;28;19925;-76
2022/10/01 08:49:50;;;;;;;;;;;;;;;10.65;100.00;98642.66;8284532;28;19935;-76
2022/10/01 08:54:12;;;;;;;;;;;;;;;10.70;100.00;98643.44;8284528;28;19980;-76
2022/10/01 08:58:20;;;;;;;;;;;;;;;10.73;100.00;98648.56;8285690;28;19931;-76
2022/10/01 09:02:32;;;;;;;;;;;;;;;10.79;100.00;98637.25;8266202;28;19983;-76
2022/10/01 09:06:33;;;;;;;;;;;;;;;10.85;100.00;98640.56;8268496;28;20008;-76
2022/10/01 09:10:39;;;;;;;;;;;;;;;10.89;100.00;98642.22;8251010;28;19929;-76
2022/10/01 09:14:41;;;;;;;;;;;;;;;10.93;100.00;98650.81;8285978;28;19921;-77
2022/10/01 09:19:04;;;;;;;;;;;;;;;10.94;100.00;98652.53;8285347;28;19937;-74
2022/10/01 09:23:14;;;;;;;;;;;;;;;10.97;100.00;98657.69;8255737;28;19983;-75
2022/10/01 09:27:24;;;;;;;;;;;;;;;11.01;100.00;98659.34;8251799;28;19975;-74
2022/10/01 09:31:28;;;;;;;;;;;;;;;11.08;100.00;98667.88;8264105;28;20405;-74
2022/10/01 09:35:47;;;;;;;;;;;;;;;11.10;100.00;98666.09;8284273;28;20301;-74
2022/10/01 09:40:04;;;;;;;;;;;;;;;11.11;100.00;98675.59;8284687;28;19929;-73
2022/10/01 09:44:14;;;;;;;;;;;;;;;11.14;100.00;98676.44;8256338;28;19936;-74
2022/10/01 09:48:24;;;;;;;;;;;;;;;11.20;100.00;98670.25;8251349;28;20045;-75
2022/10/01 09:52:28;;;;;;;;;;;;;;;11.29;100.00;98669.22;8282435;28;19987;-74
2022/10/01 09:56:36;;;;;;;;;;;;;;;11.35;100.00;98666.50;8285032;28;19979;-73
2022/10/01 10:00:38;;;;;;;;;;;;;;;11.40;100.00;98668.13;8282149;28;20313;-74
2022/10/01 10:04:46;;;;;;;;;;;;;;;11.46;100.00;98675.78;8246541;28;19981;-73
2022/10/01 10:08:55;;;;;;;;;;;;;;;11.56;100.00;98679.09;8245740;28;20007;-74
2022/10/01 10:13:02;;;;;;;;;;;;;;;11.64;100.00;98678.91;8230583;28;20325;-74
2022/10/01 10:17:06;;;;;;;;;;;;;;;11.68;100.00;98681.44;8264222;28;20468;-74
2022/10/01 10:21:15;;;;;;;;;;;;;;;11.74;100.00;98685.66;8286162;28;20343;-73
2022/10/01 10:25:22;;;;;;;;;;;;;;;11.78;100.00;98690.78;8287095;28;19931;-74
2022/10/01 10:29:25;;;;;;;;;;;;;;;11.87;100.00;98688.91;8285243;28;19925;-73
2022/10/01 10:33:33;;;;;;;;;;;;;;;11.99;100.00;98686.88;8279082;28;19925;-73
2022/10/01 10:37:44;;;;;;;;;;;;;;;12.05;100.00;98691.97;8269650;28;20343;-74
2022/10/01 10:41:46;;;;;;;;;;;;;;;12.05;100.00;98704.13;8268991;28;19925;-75
2022/10/01 10:45:54;;;;;;;;;;;;;;;12.06;100.00;98708.44;8282264;28;20342;-74
2022/10/01 10:49:58;;;;;;;;;;;;;;;12.13;100.00;98716.97;8290265;28;19937;-74
2022/10/01 10:54:00;;;;;;;;;;;;;;;12.26;100.00;98719.28;8276726;28;19975;-74
2022/10/01 10:58:08;;;;;;;;;;;;;;;12.29;100.00;98718.34;8264636;28;19979;-74
2022/10/01 11:02:15;;;;;;;;;;;;;;;12.34;100.00;98721.69;8252822;28;19925;-74
2022/10/01 11:06:17;;;;;;;;;;;;;;;12.53;100.00;98722.13;8284408;28;19965;-74
2022/10/01 11:10:42;;;;;;;;;;;;;;;12.69;100.00;98728.69;8284083;28;19939;-74
2022/10/01 11:14:52;;;;;;;;;;;;;;;12.79;100.00;98726.75;8279058;28;20354;-74
2022/10/01 11:18:54;;;;;;;;;;;;;;;12.90;100.00;98730.78;8283499;28;19936;-75
2022/10/01 11:23:07;;;;;;;;;;;;;;;13.08;100.00;98731.22;8268518;28;20362;-75
2022/10/01 11:27:13;;;;;;;;;;;;;;;13.24;99.72;98729.97;8282155;28;19933;-74
2022/10/01 11:31:33;;;;;;;;;;;;;;;13.28;98.04;98742.03;8269547;28;19925;-74
2022/10/01 11:35:36;;;;;;;;;;;;;;;13.18;97.00;98736.22;8281897;28;19933;-74
2022/10/01 11:39:41;;;;;;;;;;;;;;;13.11;97.02;98737.25;8264034;28;20526;-74
2022/10/01 11:43:56;;;;;;;;;;;;;;;13.07;97.03;98745.16;8280254;28;19943;-74
2022/10/01 11:48:25;;;;;;;;;;;;;;;13.05;97.66;98737.38;8256313;28;20397;-74
2022/10/01 11:52:45;;;;;;;;;;;;;;;13.01;97.34;98751.38;8264750;28;20239;-74
2022/10/01 12:01:25;;;;;;;;;;;;;;;13.10;98.24;98753.75;8254084;28;20410;-74
2022/10/01 12:05:30;;;;;;;;;;;;;;;13.12;97.66;98754.59;8257021;28;19932;-76
2022/10/01 12:09:35;;;;;;;;;;;;;;;13.19;98.32;98757.94;8257734;28;19925;-76
2022/10/01 12:14:09;;;;;;;;;;;;;;;13.21;98.11;98756.13;8258901;28;19922;-77
2022/10/01 12:18:22;;;;;;;;;;;;;;;13.26;98.60;98747.28;8229052;28;20475;-76
2022/10/01 12:22:24;;;;;;;;;;;;;;;13.35;98.49;98735.78;8281935;28;19925;-76
2022/10/01 12:26:47;;;;;;;;;;;;;;;13.44;99.32;98735.53;8279163;28;19925;-76
2022/10/01 12:30:54;;;;;;;;;;;;;;;13.59;98.78;98747.31;8280137;28;19984;-75
2022/10/01 12:35:22;;;;;;;;;;;;;;;13.74;99.05;98739.06;8264903;28;19925;-75
2022/10/01 12:39:49;;;;;;;;;;;;;;;13.88;98.15;98742.16;8264714;28;20008;-76
2022/10/01 12:44:04;;;;;;;;;;;;;;;14.03;97.63;98742.63;8259357;28;19922;-76
2022/10/01 12:48:17;;;;;;;;;;;;;;;14.19;97.19;98749.13;8276846;28;20003;-76
2022/10/01 12:52:33;;;;;;;;;;;;;;;14.50;97.28;98741.22;8278362;28;19969;-76
2022/10/01 12:56:36;;;;;;;;;;;;;;;14.75;95.68;98741.34;8271271;28;19926;-76
2022/10/01 13:00:54;;;;;;;;;;;;;;;14.81;94.94;98735.91;8257522;28;19933;-76
2022/10/01 13:04:57;;;;;;;;;;;;;;;14.97;93.81;98738.88;8282987;28;19925;-76
2022/10/01 13:09:14;;;;;;;;;;;;;;;15.03;93.07;98741.28;8270517;28;19936;-76
2022/10/01 13:13:20;;;;;;;;;;;;;;;15.14;92.50;98748.78;8264051;28;19940;-76
2022/10/01 13:17:26;;;;;;;;;;;;;;;15.31;92.62;98747.31;8282319;28;19936;-76
2022/10/01 13:21:46;;;;;;;;;;;;;;;15.56;91.83;98756.94;8282791;28;20342;-77
2022/10/01 13:26:17;;;;;;;;;;;;;;;15.75;90.52;98765.03;8278367;28;19929;-76
2022/10/01 13:30:26;;;;;;;;;;;;;;;15.87;89.46;98762.84;8267883;28;19933;-76
2022/10/01 13:34:31;;;;;;;;;;;;;;;15.71;88.15;98765.13;8265075;28;20472;-76
2022/10/01 13:38:38;;;;;;;;;;;;;;;15.63;88.82;98769.81;8281197;28;19999;-76
2022/10/01 13:42:47;;;;;;;;;;;;;;;15.64;89.26;98773.28;8270786;28;19925;-76
2022/10/01 13:47:01;;;;;;;;;;;;;;;15.63;89.14;98775.03;8278008;28;19929;-76
2022/10/01 13:51:05;;;;;;;;;;;;;;;15.51;88.83;98782.41;8280349;28;19929;-75
2022/10/01 13:55:27;;;;;;;;;;;;;;;15.41;89.04;98793.16;8277617;28;19925;-76
2022/10/01 13:59:34;;;;;;;;;;;;;;;15.28;89.24;98796.28;8263423;28;19934;-74
2022/10/01 14:03:42;;;;;;;;;;;;;;;15.22;89.92;98809.53;8260640;28;19929;-74
2022/10/01 14:07:45;;;;;;;;;;;;;;;15.16;90.48;98814.97;8264394;28;19925;-74
2022/10/01 14:16:08;;;;;;;;;;;;;;;14.84;92.57;98813.38;8270717;28;20000;-74
2022/10/01 14:20:18;;;;;;;;;;;;;;;14.76;93.71;98830.16;8251457;28;20517;-75
2022/10/01 14:24:19;;;;;;;;;;;;;;;14.67;94.46;98809.50;8254266;28;19933;-75
2022/10/01 14:28:20;;;;;;;;;;;;;;;14.62;95.40;98821.00;8237615;28;19932;-74
2022/10/01 14:32:49;;;;;;;;;;;;;;;14.56;95.88;98847.31;8245713;28;20069;-75
2022/10/01 14:36:52;;;;;;;;;;;;;;;14.56;96.77;98836.88;8207368;28;19926;-74
2022/10/01 14:40:54;;;;;;;;;;;;;;;14.60;97.28;98839.34;8216240;28;20004;-74
2022/10/01 14:44:55;;;;;;;;;;;;;;;14.63;98.11;98848.84;8220487;28;19926;-75
2022/10/01 14:49:03;;;;;;;;;;;;;;;14.65;98.44;98833.97;8217583;28;20244;-75
2022/10/01 14:53:05;;;;;;;;;;;;;;;14.68;98.46;98857.41;8217965;28;19949;-74
2022/10/01 14:57:17;;;;;;;;;;;;;;;14.65;98.34;98870.56;8221004;28;19926;-74
2022/10/01 15:01:19;;;;;;;;;;;;;;;14.61;97.95;98868.94;8218930;28;19934;-74
2022/10/01 15:05:22;;;;;;;;;;;;;;;14.58;97.94;98869.88;8223339;28;19937;-77
2022/10/01 15:09:32;;;;;;;;;;;;;;;14.57;98.16;98876.03;8220040;28;19926;-76
2022/10/01 15:13:38;;;;;;;;;;;;;;;14.57;98.42;98870.78;8222644;28;19926;-77
2022/10/01 15:17:41;;;;;;;;;;;;;;;14.55;98.61;98871.75;8206388;28;19930;-77
2022/10/01 15:21:50;;;;;;;;;;;;;;;14.52;98.86;98877.88;8223922;28;19930;-76
2022/10/01 15:25:59;;;;;;;;;;;;;;;14.53;99.12;98892.66;8220456;28;20407;-76
2022/10/01 15:30:00;;;;;;;;;;;;;;;14.49;99.07;98891.88;8223659;28;19933;-76
2022/10/01 15:34:03;;;;;;;;;;;;;;;14.47;99.45;98890.22;8222544;28;20699;-76
2022/10/01 15:38:04;;;;;;;;;;;;;;;14.45;99.40;98905.94;8258572;28;19925;-75
2022/10/01 15:42:27;;;;;;;;;;;;;;;14.44;99.58;98908.59;8258194;28;19943;-77
2022/10/01 15:46:33;;;;;;;;;;;;;;;14.36;100.00;98931.41;8253045;28;19981;-76
2022/10/01 15:50:37;;;;;;;;;;;;;;;14.36;100.00;98944.47;8255263;28;19929;-77
2022/10/01 15:54:44;;;;;;;;;;;;;;;14.38;100.00;98945.31;8240272;28;19925;-77
2022/10/01 15:58:49;;;;;;;;;;;;;;;14.41;100.00;98950.47;8259611;28;20012;-76
2022/10/01 16:02:51;;;;;;;;;;;;;;;14.40;100.00;98953.97;8237936;28;20096;-77
2022/10/01 16:06:52;;;;;;;;;;;;;;;14.37;100.00;98962.75;8220315;28;20283;-77
2022/10/01 16:11:07;;;;;;;;;;;;;;;14.35;100.00;98987.16;8236247;28;19926;-77
2022/10/01 16:15:24;;;;;;;;;;;;;;;14.37;100.00;98993.22;8238353;28;20183;-76
2022/10/01 16:19:29;;;;;;;;;;;;;;;14.38;100.00;98993.19;8241073;28;19925;-76
2022/10/01 16:23:30;;;;;;;;;;;;;;;14.37;99.66;98991.47;8254710;28;19956;-75
2022/10/01 16:27:45;;;;;;;;;;;;;;;14.33;99.58;98989.81;8253074;28;20399;-76
2022/10/01 16:31:54;;;;;;;;;;;;;;;14.32;99.19;98979.41;8231199;28;19980;-75
2022/10/01 16:36:09;;;;;;;;;;;;;;;14.31;98.63;98989.00;8219047;28;19925;-75
2022/10/01 16:40:11;;;;;;;;;;;;;;;14.26;98.53;99001.34;8252963;28;19929;-75
2022/10/01 16:44:16;;;;;;;;;;;;;;;14.20;97.84;99014.56;8250886;28;19930;-75
2022/10/01 16:48:19;;;;;;;;;;;;;;;14.13;97.12;99019.06;8229680;28;20047;-75
2022/10/01 16:52:20;;;;;;;;;;;;;;;14.02;97.15;99025.44;8231607;28;20258;-75
2022/10/01 16:56:22;;;;;;;;;;;;;;;13.93;97.24;99031.72;8249268;28;20348;-75
2022/10/01 17:00:30;;;;;;;;;;;;;;;13.83;97.56;99041.56;8246123;28;19926;-75
2022/10/01 17:04:37;;;;;;;;;;;;;;;13.71;97.25;99054.00;8274738;28;20293;-76
2022/10/01 17:08:39;;;;;;;;;;;;;;;13.62;97.17;99057.66;8281505;28;19929;-76
2022/10/01 17:12:40;;;;;;;;;;;;;;;13.53;97.04;99063.09;8258116;28;19976;-76
2022/10/01 17:16:42;;;;;;;;;;;;;;;13.44;97.21;99078.94;8276420;28;20530;-75
2022/10/01 17:20:44;;;;;;;;;;;;;;;13.36;98.00;99075.63;8281959;28;20291;-75
2022/10/01 17:24:46;;;;;;;;;;;;;;;13.29;98.15;99086.19;8261144;28;19925;-74
2022/10/01 17:28:47;;;;;;;;;;;;;;;13.23;98.41;99086.31;8279252;28;19929;-75
2022/10/01 17:32:48;;;;;;;;;;;;;;;13.18;99.23;99088.16;8276003;28;20608;-75
2022/10/01 17:36:50;;;;;;;;;;;;;;;13.15;99.60;99101.22;8279135;28;19933;-75
2022/10/01 17:40:59;;;;;;;;;;;;;;;13.12;99.49;99116.94;8280038;28;19925;-75
2022/10/01 17:45:01;;;;;;;;;;;;;;;13.10;99.89;99120.44;8279177;28;19921;-75
2022/10/01 17:49:02;;;;;;;;;;;;;;;13.08;99.76;99133.50;8262445;28;20838;-75
2022/10/01 17:53:03;;;;;;;;;;;;;;;13.01;100.00;99148.38;8261950;28;19991;-75
2022/10/01 17:57:05;;;;;;;;;;;;;;;13.02;100.00;99151.84;8262562;28;19925;-75
2022/10/01 18:01:08;;;;;;;;;;;;;;;13.00;100.00;99162.31;8271672;28;19925;-75
2022/10/01 18:05:11;;;;;;;;;;;;;;;13.00;100.00;99179.69;8260016;28;19975;-75
2022/10/01 18:09:12;;;;;;;;;;;;;;;12.99;100.00;99184.06;8258883;28;19925;-75
2022/10/01 18:13:14;;;;;;;;;;;;;;;12.96;100.00;99180.66;8276179;28;19983;-75
2022/10/01 18:17:22;;;;;;;;;;;;;;;12.90;100.00;99196.38;8274441;28;19933;-75
2022/10/01 18:21:25;;;;;;;;;;;;;;;12.83;100.00;99193.00;8280087;28;19929;-75
2022/10/01 18:25:26;;;;;;;;;;;;;;;12.83;100.00;99198.22;8274797;28;20318;-75
2022/10/01 18:29:27;;;;;;;;;;;;;;;12.86;100.00;99199.91;8278253;28;20388;-75
2022/10/01 18:33:29;;;;;;;;;;;;;;;12.87;100.00;99217.28;8274607;28;20003;-75
2022/10/01 18:37:38;;;;;;;;;;;;;;;12.88;100.00;99209.44;8284998;28;19925;-75
2022/10/01 18:41:40;;;;;;;;;;;;;;;12.87;100.00;99219.88;8284115;28;19972;-75
2022/10/01 18:45:58;;;;;;;;;;;;;;;12.86;100.00;99234.66;8279549;28;19926;-75
2022/10/01 18:50:15;;;;;;;;;;;;;;;12.88;100.00;99245.03;8281794;28;19933;-74
2022/10/01 18:54:20;;;;;;;;;;;;;;;12.87;100.00;99243.31;8269272;28;20361;-74
2022/10/01 18:58:37;;;;;;;;;;;;;;;12.87;100.00;99254.63;8267688;28;19925;-75
2022/10/01 19:03:08;;;;;;;;;;;;;;;12.86;100.00;99259.84;8284027;28;20765;-76
2022/10/01 19:07:35;;;;;;;;;;;;;;;12.83;100.00;99258.16;8282452;28;19929;-76
2022/10/01 19:11:45;;;;;;;;;;;;;;;12.81;100.00;99272.09;8283827;28;20353;-75
2022/10/01 19:15:49;;;;;;;;;;;;;;;12.80;100.00;99279.06;8280883;28;19933;-75
2022/10/01 19:20:01;;;;;;;;;;;;;;;12.77;100.00;99280.84;8284205;28;19925;-75
2022/10/01 19:24:03;;;;;;;;;;;;;;;12.79;100.00;99286.91;8266808;28;19925;-75
2022/10/01 19:28:15;;;;;;;;;;;;;;;12.81;100.00;99287.72;8267949;28;19925;-75
2022/10/01 19:32:21;;;;;;;;;;;;;;;12.84;100.00;99298.09;8264302;28;19929;-75
2022/10/01 19:36:25;;;;;;;;;;;;;;;12.86;100.00;99297.19;8250449;28;19980;-75
2022/10/01 19:40:41;;;;;;;;;;;;;;;12.86;100.00;99307.63;8252903;28;19952;-75
2022/10/01 19:44:45;;;;;;;;;;;;;;;12.84;100.00;99304.19;8249965;28;19929;-75
2022/10/01 19:48:49;;;;;;;;;;;;;;;12.86;100.00;99314.56;8229028;28;19944;-75
2022/10/01 19:52:54;;;;;;;;;;;;;;;12.86;100.00;99305.00;8249129;28;19933;-75
2022/10/01 19:57:01;;;;;;;;;;;;;;;12.86;100.00;99311.97;8246736;28;20395;-75
2022/10/01 20:01:02;;;;;;;;;;;;;;;12.88;100.00;99315.41;8243239;28;20318;-75
2022/10/01 20:05:05;;;;;;;;;;;;;;;12.87;100.00;99314.53;8259325;28;20558;-75
2022/10/01 20:09:27;;;;;;;;;;;;;;;12.87;100.00;99319.75;8243188;28;19984;-75
2022/10/01 20:13:41;;;;;;;;;;;;;;;12.86;100.00;99338.03;8251841;28;20381;-75
2022/10/01 20:17:51;;;;;;;;;;;;;;;12.86;100.00;99349.31;8242374;28;19936;-75
2022/10/01 20:22:02;;;;;;;;;;;;;;;12.84;100.00;99350.22;8242219;28;19932;-75
2022/10/01 20:26:15;;;;;;;;;;;;;;;12.82;100.00;99362.41;8246647;28;20596;-75
2022/10/01 20:30:19;;;;;;;;;;;;;;;12.79;100.00;99362.47;8248877;28;19926;-75
2022/10/01 20:34:26;;;;;;;;;;;;;;;12.74;100.00;99382.47;8252291;28;19932;-75
2022/10/01 20:38:32;;;;;;;;;;;;;;;12.67;100.00;99379.09;8285810;28;20432;-75
2022/10/01 20:42:40;;;;;;;;;;;;;;;12.59;100.00;99384.44;8267114;28;19925;-75
2022/10/01 20:46:46;;;;;;;;;;;;;;;12.54;100.00;99399.22;8279173;28;19925;-74
2022/10/01 20:51:00;;;;;;;;;;;;;;;12.47;100.00;99397.59;8265253;28;19983;-74
2022/10/01 20:55:03;;;;;;;;;;;;;;;12.40;100.00;99401.16;8281667;28;19925;-75
2022/10/01 20:59:24;;;;;;;;;;;;;;;12.30;100.00;99397.78;8267088;28;19926;-75
2022/10/01 21:03:30;;;;;;;;;;;;;;;12.27;100.00;99400.44;8243948;28;19925;-75
2022/10/01 21:07:38;;;;;;;;;;;;;;;12.29;100.00;99408.22;8252403;28;19984;-75
2022/10/01 21:11:52;;;;;;;;;;;;;;;12.32;100.00;99410.78;8233199;28;20669;-75
2022/10/01 21:16:01;;;;;;;;;;;;;;;12.37;100.00;99424.59;8233857;28;19933;-75
2022/10/01 21:20:03;;;;;;;;;;;;;;;12.38;100.00;99436.75;8282736;28;19932;-75
2022/10/01 21:24:15;;;;;;;;;;;;;;;12.40;100.00;99435.00;8249200;28;20649;-75
2022/10/01 21:28:28;;;;;;;;;;;;;;;12.36;100.00;99426.34;8266158;28;19960;-75
2022/10/01 21:32:45;;;;;;;;;;;;;;;12.37;100.00;99440.22;8246640;28;19984;-75
2022/10/01 21:37:06;;;;;;;;;;;;;;;12.35;100.00;99442.84;8246772;28;19926;-75